createdAt,value
2018-09-24T00:01:47.939Z,8.70
2018-09-24T00:04:16.282Z,8.80
2018-09-24T00:06:44.602Z,8.70
2018-09-24T00:09:12.966Z,8.70
2018-09-24T00:11:41.290Z,8.70
2018-09-24T00:14:09.627Z,8.70
2018-09-24T00:16:37.956Z,8.70
2018-09-24T00:19:06.302Z,8.70
2018-09-24T00:21:34.626Z,8.70
2018-09-24T00:24:02.966Z,8.70
2018-09-24T00:26:31.303Z,8.70
2018-09-24T00:28:59.637Z,8.70
2018-09-24T00:31:28.002Z,8.70
2018-09-24T00:33:56.345Z,8.70
2018-09-24T00:36:24.668Z,8.70
2018-09-24T00:38:53.025Z,8.70
2018-09-24T00:41:21.344Z,8.70
2018-09-24T00:43:49.689Z,8.70
2018-09-24T00:46:18.021Z,8.70
2018-09-24T00:48:46.366Z,8.70
2018-09-24T00:51:14.686Z,8.70
2018-09-24T00:53:43.026Z,8.70
2018-09-24T00:56:11.362Z,8.70
2018-09-24T00:58:39.706Z,8.70
2018-09-24T01:01:08.045Z,8.70
2018-09-24T01:03:36.400Z,8.60
2018-09-24T01:06:04.714Z,8.60
2018-09-24T01:08:33.079Z,8.60
2018-09-24T01:11:01.399Z,8.60
2018-09-24T01:13:29.727Z,8.60
2018-09-24T01:15:58.073Z,8.60
2018-09-24T01:18:26.409Z,8.60
2018-09-24T01:20:54.734Z,8.60
2018-09-24T01:23:23.113Z,8.60
2018-09-24T01:25:51.416Z,8.60
2018-09-24T01:28:19.747Z,8.60
2018-09-24T01:30:48.091Z,8.60
2018-09-24T01:33:16.401Z,8.60
2018-09-24T01:35:44.743Z,8.60
2018-09-24T01:38:13.061Z,8.50
2018-09-24T01:40:41.439Z,8.50
2018-09-24T01:43:09.756Z,8.50
2018-09-24T01:45:38.104Z,8.50
2018-09-24T01:48:06.494Z,8.50
2018-09-24T01:50:35.289Z,8.50
2018-09-24T01:53:05.681Z,8.60
2018-09-24T01:55:34.048Z,8.60
2018-09-24T01:58:02.435Z,8.60
2018-09-24T02:00:30.783Z,8.60
2018-09-24T02:02:59.115Z,8.60
2018-09-24T02:05:27.466Z,8.60
2018-09-24T02:07:55.799Z,8.60
2018-09-24T02:10:25.283Z,8.60
2018-09-24T02:12:55.590Z,8.60
2018-09-24T02:15:27.927Z,8.60
2018-09-24T02:17:56.250Z,8.70
2018-09-24T02:20:24.607Z,8.60
2018-09-24T02:22:52.960Z,8.70
2018-09-24T02:25:21.290Z,8.70
2018-09-24T02:27:49.615Z,8.70
2018-09-24T02:30:18.976Z,8.70
2018-09-24T02:32:47.300Z,8.70
2018-09-24T02:35:15.935Z,8.70
2018-09-24T02:37:44.315Z,8.70
2018-09-24T02:40:21.599Z,8.70
2018-09-24T02:42:50.257Z,8.70
2018-09-24T02:45:18.651Z,8.70
2018-09-24T02:47:46.962Z,8.70
2018-09-24T02:50:15.307Z,8.70
2018-09-24T02:52:43.675Z,8.70
2018-09-24T02:55:15.337Z,8.70
2018-09-24T02:57:44.018Z,8.70
2018-09-24T03:00:13.442Z,8.60
2018-09-24T03:02:41.779Z,8.60
2018-09-24T03:05:10.131Z,8.60
2018-09-24T03:07:38.454Z,8.60
2018-09-24T03:10:06.868Z,8.60
2018-09-24T03:12:35.206Z,8.60
2018-09-24T03:15:03.555Z,8.60
2018-09-24T03:17:31.894Z,8.60
2018-09-24T03:20:00.237Z,8.60
2018-09-24T03:22:28.608Z,8.60
2018-09-24T03:24:56.983Z,8.60
2018-09-24T03:27:25.310Z,8.60
2018-09-24T03:29:53.670Z,8.60
2018-09-24T03:32:22.010Z,8.60
2018-09-24T03:34:50.354Z,8.50
2018-09-24T03:37:18.687Z,8.60
2018-09-24T03:39:47.046Z,8.50
2018-09-24T03:42:15.362Z,8.50
2018-09-24T03:44:43.741Z,8.50
2018-09-24T03:47:12.064Z,8.50
2018-09-24T03:49:40.409Z,8.50
2018-09-24T03:52:08.751Z,8.40
2018-09-24T03:54:37.112Z,8.40
2018-09-24T03:57:05.443Z,8.40
2018-09-24T03:59:33.777Z,8.40
2018-09-24T04:02:02.119Z,8.40
2018-09-24T04:04:35.945Z,8.40
2018-09-24T04:07:09.597Z,8.40
2018-09-24T04:09:43.375Z,8.40
2018-09-24T04:12:17.055Z,8.30
2018-09-24T04:14:50.734Z,8.30
2018-09-24T04:17:24.435Z,8.30
2018-09-24T04:19:58.148Z,8.30
2018-09-24T04:22:31.714Z,8.30
2018-09-24T04:25:05.334Z,8.20
2018-09-24T04:27:39.095Z,8.20
2018-09-24T04:30:12.802Z,8.20
2018-09-24T04:32:46.476Z,8.20
2018-09-24T04:35:20.115Z,8.20
2018-09-24T04:37:53.775Z,8.20
2018-09-24T04:40:27.662Z,8.10
2018-09-24T04:43:01.315Z,8.10
2018-09-24T04:45:35.148Z,8.10
2018-09-24T04:48:08.827Z,8.10
2018-09-24T04:50:42.612Z,8.10
2018-09-24T04:53:16.326Z,8.10
2018-09-24T04:55:50.014Z,8.10
2018-09-24T04:58:23.714Z,8.10
2018-09-24T05:00:57.365Z,8.10
2018-09-24T05:03:31.043Z,8.10
2018-09-24T05:06:04.678Z,8.10
2018-09-24T05:08:38.367Z,8.10
2018-09-24T05:11:12.089Z,8.00
2018-09-24T05:13:45.773Z,8.00
2018-09-24T05:16:19.538Z,8.10
2018-09-24T05:18:53.290Z,8.00
2018-09-24T05:21:26.890Z,8.00
2018-09-24T05:24:00.583Z,8.00
2018-09-24T05:26:34.355Z,8.00
2018-09-24T05:29:08.103Z,8.00
2018-09-24T05:31:41.887Z,8.00
2018-09-24T05:34:15.648Z,8.00
2018-09-24T05:36:49.496Z,8.10
2018-09-24T05:39:23.159Z,8.00
2018-09-24T05:41:56.873Z,8.10
2018-09-24T05:44:30.514Z,8.10
2018-09-24T05:47:04.259Z,8.10
2018-09-24T05:49:37.856Z,8.10
2018-09-24T05:52:11.836Z,8.10
2018-09-24T05:54:45.359Z,8.10
2018-09-24T05:57:19.016Z,8.10
2018-09-24T05:59:52.634Z,8.10
2018-09-24T06:02:26.378Z,8.20
2018-09-24T06:05:00.090Z,8.20
2018-09-24T06:07:33.775Z,8.20
2018-09-24T06:10:07.403Z,8.20
2018-09-24T06:12:41.145Z,8.30
2018-09-24T06:15:14.754Z,8.30
2018-09-24T06:17:48.478Z,8.30
2018-09-24T06:20:22.113Z,8.30
2018-09-24T06:22:55.775Z,8.30
2018-09-24T06:25:29.591Z,8.30
2018-09-24T06:28:03.380Z,8.40
2018-09-24T06:30:37.019Z,8.40
2018-09-24T06:33:10.672Z,8.40
2018-09-24T06:35:44.316Z,8.40
2018-09-24T06:38:18.095Z,8.50
2018-09-24T06:40:51.780Z,8.50
2018-09-24T06:43:25.499Z,8.50
2018-09-24T06:45:59.187Z,8.50
2018-09-24T06:48:32.909Z,8.50
2018-09-24T06:51:06.623Z,8.60
2018-09-24T06:53:40.221Z,8.60
2018-09-24T06:56:13.880Z,8.70
2018-09-24T06:58:47.623Z,8.70
2018-09-24T07:01:21.287Z,8.70
2018-09-24T07:03:54.874Z,8.70
2018-09-24T07:06:28.589Z,8.70
2018-09-24T07:09:02.309Z,8.80
2018-09-24T07:11:36.046Z,8.80
2018-09-24T07:14:09.747Z,8.80
2018-09-24T07:16:43.279Z,8.80
2018-09-24T07:19:16.957Z,8.90
2018-09-24T07:21:50.561Z,8.90
2018-09-24T07:24:24.201Z,8.90
2018-09-24T07:26:57.867Z,9.00
2018-09-24T07:29:31.406Z,9.00
2018-09-24T07:32:05.031Z,9.10
2018-09-24T07:34:38.686Z,9.10
2018-09-24T07:37:12.388Z,9.10
2018-09-24T07:39:46.098Z,9.20
2018-09-24T07:42:19.790Z,9.30
2018-09-24T07:44:53.584Z,9.30
2018-09-24T07:47:27.259Z,9.30
2018-09-24T07:50:00.987Z,9.30
2018-09-24T07:52:35.386Z,9.40
2018-09-24T07:55:08.989Z,9.40
2018-09-24T07:57:42.703Z,9.40
2018-09-24T08:00:16.476Z,9.50
2018-09-24T08:02:57.070Z,9.50
2018-09-24T08:05:30.782Z,9.50
2018-09-24T08:08:04.433Z,9.60
2018-09-24T08:10:38.086Z,9.60
2018-09-24T08:13:11.937Z,9.70
2018-09-24T08:15:45.587Z,9.70
2018-09-24T08:18:19.447Z,9.70
2018-09-24T08:20:53.049Z,9.70
2018-09-24T08:23:26.742Z,9.80
2018-09-24T08:26:00.358Z,9.90
2018-09-24T08:28:34.094Z,9.90
2018-09-24T08:31:07.823Z,10.00
2018-09-24T08:33:41.441Z,10.00
2018-09-24T08:36:15.281Z,10.10
2018-09-24T08:38:48.972Z,10.10
2018-09-24T08:41:22.806Z,10.20
2018-09-24T08:43:56.344Z,10.30
2018-09-24T08:46:29.989Z,10.30
2018-09-24T08:49:03.667Z,10.40
2018-09-24T08:51:37.414Z,10.50
2018-09-24T08:54:11.657Z,10.60
2018-09-24T08:56:45.578Z,10.60
2018-09-24T08:59:19.491Z,10.60
2018-09-24T09:01:53.178Z,10.70
2018-09-24T09:04:27.120Z,10.70
2018-09-24T09:07:00.804Z,10.80
2018-09-24T09:09:34.486Z,10.80
2018-09-24T09:12:08.355Z,10.80
2018-09-24T09:14:41.987Z,10.90
2018-09-24T09:17:15.690Z,10.90
2018-09-24T09:19:49.320Z,11.00
2018-09-24T09:22:23.123Z,11.10
2018-09-24T09:24:56.807Z,11.20
2018-09-24T09:27:30.716Z,11.30
2018-09-24T09:30:04.436Z,11.40
2018-09-24T09:32:38.272Z,11.50
2018-09-24T09:35:11.934Z,11.50
2018-09-24T09:37:45.618Z,11.50
2018-09-24T09:40:19.309Z,11.50
2018-09-24T09:42:53.105Z,11.60
2018-09-24T09:45:26.926Z,11.60
2018-09-24T09:48:00.628Z,11.70
2018-09-24T09:50:34.334Z,11.80
2018-09-24T09:53:08.019Z,11.90
2018-09-24T09:55:41.660Z,12.00
2018-09-24T09:58:15.308Z,12.00
2018-09-24T10:00:48.927Z,12.10
2018-09-24T10:03:22.628Z,12.20
2018-09-24T10:05:56.316Z,12.20
2018-09-24T10:08:29.966Z,12.30
2018-09-24T10:11:07.631Z,12.30
2018-09-24T10:13:41.366Z,12.30
2018-09-24T10:16:15.217Z,12.30
2018-09-24T10:18:48.827Z,12.30
2018-09-24T10:21:22.630Z,12.30
2018-09-24T10:23:56.258Z,12.40
2018-09-24T10:26:29.931Z,12.40
2018-09-24T10:29:03.803Z,12.50
2018-09-24T10:31:37.461Z,12.50
2018-09-24T10:34:11.142Z,12.60
2018-09-24T10:36:44.828Z,12.70
2018-09-24T10:39:18.612Z,12.80
2018-09-24T10:41:52.259Z,12.80
2018-09-24T10:44:26.066Z,12.90
2018-09-24T10:46:59.697Z,12.90
2018-09-24T10:49:33.496Z,13.00
2018-09-24T10:52:07.011Z,13.10
2018-09-24T10:54:40.579Z,13.20
2018-09-24T10:57:14.203Z,13.30
2018-09-24T10:59:48.034Z,13.40
2018-09-24T11:02:21.630Z,13.50
2018-09-24T11:04:55.383Z,13.50
2018-09-24T11:07:29.181Z,13.60
2018-09-24T11:10:02.953Z,13.70
2018-09-24T11:12:36.571Z,13.80
2018-09-24T11:15:10.275Z,13.90
2018-09-24T11:17:44.119Z,14.00
2018-09-24T11:20:17.843Z,14.10
2018-09-24T11:22:51.541Z,14.20
2018-09-24T11:25:25.299Z,14.30
2018-09-24T11:27:58.960Z,14.40
2018-09-24T11:30:32.698Z,14.40
2018-09-24T11:33:06.637Z,14.40
2018-09-24T11:35:40.440Z,14.50
2018-09-24T11:38:14.180Z,14.50
2018-09-24T11:40:47.965Z,14.50
2018-09-24T11:43:21.649Z,14.50
2018-09-24T11:45:55.273Z,14.50
2018-09-24T11:48:28.987Z,14.40
2018-09-24T11:51:02.703Z,14.30
2018-09-24T11:53:36.430Z,14.30
2018-09-24T11:56:10.172Z,14.20
2018-09-24T11:58:43.743Z,14.20
2018-09-24T12:01:17.358Z,14.10
2018-09-24T12:03:51.232Z,14.10
2018-09-24T12:06:24.903Z,14.00
2018-09-24T12:08:58.597Z,14.00
2018-09-24T12:11:32.264Z,13.90
2018-09-24T12:14:05.893Z,13.90
2018-09-24T12:16:39.501Z,13.80
2018-09-24T12:19:13.362Z,13.90
2018-09-24T12:21:47.026Z,14.00
2018-09-24T12:24:20.682Z,14.00
2018-09-24T12:26:54.287Z,14.00
2018-09-24T12:29:28.007Z,14.10
2018-09-24T12:32:01.779Z,14.20
2018-09-24T12:34:35.456Z,14.20
2018-09-24T12:37:09.098Z,14.20
2018-09-24T12:39:42.803Z,14.20
2018-09-24T12:42:16.432Z,14.10
2018-09-24T12:44:50.170Z,14.00
2018-09-24T12:47:23.861Z,13.90
2018-09-24T12:49:57.621Z,13.80
2018-09-24T12:52:31.317Z,13.70
2018-09-24T12:55:05.055Z,13.60
2018-09-24T12:57:38.727Z,13.50
2018-09-24T13:00:12.379Z,13.40
2018-09-24T13:02:46.074Z,13.30
2018-09-24T13:05:19.790Z,13.30
2018-09-24T13:07:53.602Z,13.20
2018-09-24T13:10:27.245Z,13.20
2018-09-24T13:13:00.947Z,13.20
2018-09-24T13:15:34.656Z,13.10
2018-09-24T13:18:08.299Z,13.00
2018-09-24T13:20:42.063Z,13.00
2018-09-24T13:23:15.758Z,13.00
2018-09-24T13:25:49.474Z,13.00
2018-09-24T13:28:23.079Z,13.00
2018-09-24T13:30:56.923Z,13.10
2018-09-24T13:33:30.702Z,13.20
2018-09-24T13:36:04.423Z,13.40
2018-09-24T13:38:38.254Z,13.50
2018-09-24T13:41:11.910Z,13.60
2018-09-24T13:43:45.586Z,13.70
2018-09-24T13:46:19.327Z,13.80
2018-09-24T13:48:53.079Z,13.90
2018-09-24T13:51:26.906Z,14.00
2018-09-24T13:54:00.629Z,14.10
2018-09-24T13:56:34.423Z,14.20
2018-09-24T13:59:08.073Z,14.20
2018-09-24T14:01:41.624Z,14.30
2018-09-24T14:04:15.275Z,14.40
2018-09-24T14:06:48.957Z,14.40
2018-09-24T14:09:22.672Z,14.30
2018-09-24T14:11:56.367Z,14.20
2018-09-24T14:14:30.100Z,14.00
2018-09-24T14:17:03.842Z,14.00
2018-09-24T14:19:38.193Z,14.10
2018-09-24T14:22:11.958Z,14.10
2018-09-24T14:24:45.608Z,14.10
2018-09-24T14:27:19.386Z,14.20
2018-09-24T14:29:53.001Z,14.20
2018-09-24T14:32:26.707Z,14.20
2018-09-24T14:35:00.459Z,14.20
2018-09-24T14:37:34.101Z,14.30
2018-09-24T14:40:07.814Z,14.20
2018-09-24T14:42:41.514Z,14.20
2018-09-24T14:45:15.303Z,14.20
2018-09-24T14:47:49.106Z,14.10
2018-09-24T14:50:22.832Z,14.00
2018-09-24T14:52:56.532Z,14.10
2018-09-24T14:55:30.355Z,14.10
2018-09-24T14:58:04.027Z,14.10
2018-09-24T15:00:37.740Z,14.10
2018-09-24T15:03:11.441Z,14.00
2018-09-24T15:05:45.249Z,14.00
2018-09-24T15:08:18.869Z,13.90
2018-09-24T15:10:52.504Z,13.80
2018-09-24T15:13:26.145Z,13.80
2018-09-24T15:15:59.778Z,13.80
2018-09-24T15:18:33.446Z,13.70
2018-09-24T15:21:07.111Z,13.70
2018-09-24T15:23:40.719Z,13.60
2018-09-24T15:26:14.385Z,13.60
2018-09-24T15:28:48.077Z,13.50
2018-09-24T15:31:21.850Z,13.60
2018-09-24T15:33:55.536Z,13.50
2018-09-24T15:36:29.317Z,13.40
2018-09-24T15:39:03.015Z,13.40
2018-09-24T15:41:36.666Z,13.40
2018-09-24T15:44:10.208Z,13.30
2018-09-24T15:46:43.849Z,13.30
2018-09-24T15:49:17.476Z,13.20
2018-09-24T15:51:51.154Z,13.20
2018-09-24T15:54:24.902Z,13.20
2018-09-24T15:56:58.557Z,13.10
2018-09-24T15:59:32.233Z,13.00
2018-09-24T16:02:05.941Z,12.90
2018-09-24T16:04:39.686Z,12.90
2018-09-24T16:07:13.348Z,12.80
2018-09-24T16:09:47.755Z,12.70
2018-09-24T16:12:21.522Z,12.70
2018-09-24T16:14:55.141Z,12.60
2018-09-24T16:17:28.995Z,12.60
2018-09-24T16:20:02.694Z,12.50
2018-09-24T16:22:36.599Z,12.50
2018-09-24T16:25:10.414Z,12.40
2018-09-24T16:27:44.078Z,12.40
2018-09-24T16:30:17.621Z,12.30
2018-09-24T16:32:51.396Z,12.20
2018-09-24T16:35:25.061Z,12.20
2018-09-24T16:37:58.718Z,12.10
2018-09-24T16:40:32.464Z,12.10
2018-09-24T16:43:06.202Z,12.00
2018-09-24T16:45:39.991Z,11.90
2018-09-24T16:48:13.635Z,11.90
2018-09-24T16:50:47.313Z,11.80
2018-09-24T16:53:21.047Z,11.70
2018-09-24T16:55:54.728Z,11.70
2018-09-24T16:58:28.276Z,11.60
2018-09-24T17:01:02.045Z,11.50
2018-09-24T17:03:35.692Z,11.50
2018-09-24T17:06:09.486Z,11.40
2018-09-24T17:08:43.167Z,11.40
2018-09-24T17:11:16.836Z,11.30
2018-09-24T17:13:50.471Z,11.30
2018-09-24T17:16:24.412Z,11.30
2018-09-24T17:18:58.022Z,11.20
2018-09-24T17:21:31.634Z,11.20
2018-09-24T17:24:07.042Z,11.10
2018-09-24T17:26:40.955Z,11.00
2018-09-24T17:29:14.654Z,11.00
2018-09-24T17:31:48.351Z,11.00
2018-09-24T17:34:21.947Z,10.90
2018-09-24T17:36:55.612Z,10.90
2018-09-24T17:39:29.232Z,10.80
2018-09-24T17:42:02.865Z,10.80
2018-09-24T17:44:36.509Z,10.70
2018-09-24T17:47:10.529Z,10.60
2018-09-24T17:49:44.167Z,10.60
2018-09-24T17:52:17.782Z,10.50
2018-09-24T17:54:51.451Z,10.50
2018-09-24T17:57:25.112Z,10.40
2018-09-24T17:59:58.861Z,10.40
2018-09-24T18:02:32.744Z,10.30
2018-09-24T18:05:06.440Z,10.30
2018-09-24T18:07:40.162Z,10.20
2018-09-24T18:10:13.793Z,10.20
2018-09-24T18:12:47.479Z,10.20
2018-09-24T18:15:21.101Z,10.10
2018-09-24T18:17:54.752Z,10.10
2018-09-24T18:20:28.463Z,10.10
2018-09-24T18:23:02.158Z,10.00
2018-09-24T18:25:36.845Z,10.00
2018-09-24T18:28:10.846Z,9.90
2018-09-24T18:30:44.499Z,9.90
2018-09-24T18:33:18.164Z,9.90
2018-09-24T18:35:51.797Z,9.90
2018-09-24T18:38:25.539Z,9.80
2018-09-24T18:40:59.263Z,9.80
2018-09-24T18:43:32.881Z,9.70
2018-09-24T18:46:06.485Z,9.70
2018-09-24T18:48:40.141Z,9.70
2018-09-24T18:51:13.743Z,9.60
2018-09-24T18:53:47.438Z,9.60
2018-09-24T18:56:21.123Z,9.60
2018-09-24T18:58:54.909Z,9.50
2018-09-24T19:01:28.530Z,9.50
2018-09-24T19:04:02.339Z,9.50
2018-09-24T19:06:36.064Z,9.40
2018-09-24T19:09:11.530Z,9.40
2018-09-24T19:11:45.435Z,9.40
2018-09-24T19:14:19.069Z,9.30
2018-09-24T19:16:52.835Z,9.30
2018-09-24T19:19:26.600Z,9.30
2018-09-24T19:22:00.410Z,9.30
2018-09-24T19:24:34.123Z,9.20
2018-09-24T19:27:07.811Z,9.20
2018-09-24T19:29:41.615Z,9.20
2018-09-24T19:32:15.352Z,9.20
2018-09-24T19:34:48.995Z,9.10
2018-09-24T19:37:22.767Z,9.10
2018-09-24T19:39:56.567Z,9.10
2018-09-24T19:42:30.435Z,9.00
2018-09-24T19:45:03.980Z,9.00
2018-09-24T19:47:37.617Z,9.00
2018-09-24T19:50:11.285Z,9.00
2018-09-24T19:52:44.951Z,8.90
2018-09-24T19:55:18.643Z,8.90
2018-09-24T19:57:52.297Z,8.90
2018-09-24T20:00:26.006Z,8.90
2018-09-24T20:02:59.859Z,8.90
2018-09-24T20:05:33.474Z,8.80
2018-09-24T20:08:07.358Z,8.80
2018-09-24T20:10:41.032Z,8.80
2018-09-24T20:13:14.951Z,8.80
2018-09-24T20:15:48.610Z,8.80
2018-09-24T20:18:22.382Z,8.80
2018-09-24T20:20:56.097Z,8.70
2018-09-24T20:23:29.851Z,8.70
2018-09-24T20:26:03.649Z,8.70
2018-09-24T20:28:37.338Z,8.70
2018-09-24T20:31:11.015Z,8.60
2018-09-24T20:33:44.675Z,8.60
2018-09-24T20:36:18.338Z,8.60
2018-09-24T20:38:51.946Z,8.60
2018-09-24T20:41:25.618Z,8.60
2018-09-24T20:43:59.312Z,8.60
2018-09-24T20:46:33.059Z,8.60
2018-09-24T20:49:06.709Z,8.60
2018-09-24T20:51:40.331Z,8.60
2018-09-24T20:54:14.080Z,8.50
2018-09-24T20:56:47.895Z,8.50
2018-09-24T20:59:21.606Z,8.50
2018-09-24T21:01:55.304Z,8.50
2018-09-24T21:04:28.970Z,8.50
2018-09-24T21:07:02.806Z,8.50
2018-09-24T21:09:36.471Z,8.50
2018-09-24T21:12:10.043Z,8.50
2018-09-24T21:14:43.704Z,8.50
2018-09-24T21:17:17.312Z,8.50
2018-09-24T21:19:50.975Z,8.50
2018-09-24T21:22:24.628Z,8.40
2018-09-24T21:24:58.327Z,8.40
2018-09-24T21:27:32.074Z,8.40
2018-09-24T21:30:05.710Z,8.40
2018-09-24T21:32:39.421Z,8.40
2018-09-24T21:35:13.171Z,8.40
2018-09-24T21:37:47.023Z,8.40
2018-09-24T21:40:20.746Z,8.40
2018-09-24T21:42:54.364Z,8.30
2018-09-24T21:45:28.067Z,8.30
2018-09-24T21:48:01.877Z,8.30
2018-09-24T21:50:35.648Z,8.30
2018-09-24T21:53:09.434Z,8.30
2018-09-24T21:55:43.150Z,8.30
2018-09-24T21:58:16.927Z,8.20
2018-09-24T22:00:50.682Z,8.20
2018-09-24T22:03:24.366Z,8.20
2018-09-24T22:05:58.075Z,8.20
2018-09-24T22:08:31.784Z,8.20
2018-09-24T22:11:05.524Z,8.20
2018-09-24T22:13:39.208Z,8.20
2018-09-24T22:16:12.829Z,8.10
2018-09-24T22:18:46.489Z,8.10
2018-09-24T22:21:20.190Z,8.10
2018-09-24T22:23:53.866Z,8.10
2018-09-24T22:26:27.516Z,8.10
2018-09-24T22:29:01.176Z,8.10
2018-09-24T22:31:34.776Z,8.10
2018-09-24T22:34:08.614Z,8.00
2018-09-24T22:36:42.276Z,8.00
2018-09-24T22:39:15.978Z,8.00
2018-09-24T22:41:49.711Z,8.00
2018-09-24T22:44:23.392Z,7.90
2018-09-24T22:46:57.123Z,7.90
2018-09-24T22:49:30.857Z,7.90
2018-09-24T22:52:04.584Z,7.90
2018-09-24T22:54:38.457Z,7.90
2018-09-24T22:57:12.332Z,7.80
2018-09-24T22:59:45.986Z,7.80
2018-09-24T23:02:19.682Z,7.80
2018-09-24T23:04:53.472Z,7.80
2018-09-24T23:07:27.072Z,7.80
2018-09-24T23:10:00.813Z,7.80
2018-09-24T23:12:34.500Z,7.70
2018-09-24T23:15:08.193Z,7.70
2018-09-24T23:17:41.855Z,7.70
2018-09-24T23:20:15.524Z,7.70
2018-09-24T23:22:49.144Z,7.70
2018-09-24T23:25:22.879Z,7.60
2018-09-24T23:27:56.570Z,7.60
2018-09-24T23:30:30.215Z,7.60
2018-09-24T23:33:03.826Z,7.60
2018-09-24T23:35:37.482Z,7.60
2018-09-24T23:38:11.158Z,7.50
2018-09-24T23:40:44.875Z,7.50
2018-09-24T23:43:18.538Z,7.50
2018-09-24T23:45:52.223Z,7.50
2018-09-24T23:48:25.876Z,7.50
2018-09-24T23:50:59.556Z,7.40
2018-09-24T23:53:33.113Z,7.40
2018-09-24T23:56:06.865Z,7.40
2018-09-24T23:58:40.664Z,7.40
